Time;durP1;ratioP1;P1;durP2;ratioP2;P2;SDS_P1;SDS_P2;PMS_P1;PMS_P2;Temp;Humidity;BMP_temperature;BMP_pressure;BME280_temperature;BME280_humidity;BME280_pressure;Samples;Min_cycle;Max_cycle;Signal;HPM_P1;HPM_P2
2021/05/26 00:01:10;;;;;;;14.48;10.38;;;8.40;96.60;;;;;;5070759;28;20036;-65
2021/05/26 00:03:36;;;;;;;10.85;9.63;;;8.50;96.70;;;;;;5073966;28;20044;-64
2021/05/26 00:06:03;;;;;;;14.80;10.43;;;8.50;96.70;;;;;;5074339;28;20040;-64
2021/05/26 00:08:29;;;;;;;11.93;10.60;;;8.50;96.80;;;;;;5074080;28;20478;-64
2021/05/26 00:10:56;;;;;;;11.75;10.50;;;8.50;96.40;;;;;;5074112;28;20044;-64
2021/05/26 00:13:22;;;;;;;11.07;9.98;;;8.50;96.70;;;;;;5074193;28;20390;-64
2021/05/26 00:15:48;;;;;;;11.68;10.65;;;8.40;96.70;;;;;;5056291;28;20041;-64
2021/05/26 00:18:14;;;;;;;14.00;10.30;;;8.50;96.60;;;;;;5073909;28;20443;-64
2021/05/26 00:20:41;;;;;;;12.50;10.85;;;8.40;97.30;;;;;;5073878;28;20072;-64
2021/05/26 00:23:06;;;;;;;12.18;10.98;;;8.50;97.50;;;;;;5073863;28;20040;-64
2021/05/26 00:25:32;;;;;;;21.75;11.48;;;8.50;97.10;;;;;;5073876;28;20496;-64
2021/05/26 00:27:58;;;;;;;13.75;10.25;;;8.50;97.40;;;;;;5073943;28;20043;-64
2021/05/26 00:30:32;;;;;;;12.05;10.82;;;8.40;96.50;;;;;;5055755;28;20037;-65
2021/05/26 00:32:58;;;;;;;11.70;10.38;;;8.50;97.30;;;;;;5073742;28;20047;-65
2021/05/26 00:35:24;;;;;;;11.82;10.25;;;8.40;96.90;;;;;;5073644;28;20037;-65
2021/05/26 00:37:50;;;;;;;12.50;10.45;;;8.40;97.30;;;;;;5073362;28;20470;-65
2021/05/26 00:40:17;;;;;;;14.32;10.55;;;8.50;97.60;;;;;;5073633;28;20049;-65
2021/05/26 00:42:43;;;;;;;13.18;10.30;;;8.50;97.80;;;;;;5073896;28;20064;-65
2021/05/26 00:45:09;;;;;;;14.23;11.63;;;8.50;97.90;;;;;;5073506;28;20076;-65
2021/05/26 00:47:42;;;;;;;13.18;11.35;;;8.50;98.00;;;;;;5073545;28;20471;-65
2021/05/26 00:50:15;;;;;;;15.75;11.73;;;8.60;97.90;;;;;;5055588;28;20036;-65
2021/05/26 00:52:42;;;;;;;13.45;12.05;;;8.70;97.80;;;;;;5073115;28;20116;-65
2021/05/26 00:55:11;;;;;;;12.32;10.20;;;8.70;98.20;;;;;;5073513;28;20119;-65
2021/05/26 00:57:37;;;;;;;11.70;10.25;;;8.80;97.40;;;;;;5073715;28;20048;-65
2021/05/26 01:00:06;;;;;;;14.82;10.90;;;8.90;97.30;;;;;;5073784;28;20076;-65
2021/05/26 01:02:31;;;;;;;12.57;9.48;;;8.90;97.40;;;;;;5073373;28;20444;-65
2021/05/26 01:04:57;;;;;;;10.43;9.43;;;8.90;97.20;;;;;;5073446;28;20044;-65
2021/05/26 01:07:22;;;;;;;10.63;9.45;;;9.00;97.70;;;;;;5073443;28;20068;-65
2021/05/26 01:09:48;;;;;;;10.60;9.45;;;9.00;97.30;;;;;;5073777;28;20051;-65
2021/05/26 01:12:14;;;;;;;10.85;9.60;;;9.10;97.30;;;;;;5073253;28;20037;-65
2021/05/26 01:14:40;;;;;;;10.73;9.52;;;9.10;97.30;;;;;;5073167;28;20041;-65
2021/05/26 01:17:06;;;;;;;12.30;9.23;;;9.10;97.00;;;;;;5073307;28;20044;-65
2021/05/26 01:19:32;;;;;;;11.63;9.75;;;9.10;96.80;;;;;;5073407;28;20099;-65
2021/05/26 01:21:57;;;;;;;12.75;9.48;;;9.10;97.30;;;;;;5072853;28;20170;-65
2021/05/26 01:24:23;;;;;;;12.85;9.93;;;9.20;97.20;;;;;;5072825;28;20033;-65
2021/05/26 01:26:49;;;;;;;10.68;9.48;;;9.20;97.40;;;;;;5072879;28;20126;-65
2021/05/26 01:29:15;;;;;;;11.20;9.27;;;9.20;97.60;;;;;;5072863;28;20041;-65
2021/05/26 01:31:44;;;;;;;12.80;10.18;;;9.20;96.90;;;;;;5072455;28;20040;-65
2021/05/26 01:34:09;;;;;;;10.43;9.40;;;9.20;97.50;;;;;;5072698;28;20116;-65
2021/05/26 01:36:35;;;;;;;16.95;10.57;;;9.20;96.90;;;;;;5072670;28;20131;-65
2021/05/26 01:39:05;;;;;;;11.10;9.43;;;9.20;97.30;;;;;;5054589;28;20072;-65
2021/05/26 01:41:30;;;;;;;13.15;9.55;;;9.20;97.20;;;;;;5072518;28;20489;-65
2021/05/26 01:43:56;;;;;;;11.32;10.20;;;9.20;97.40;;;;;;5072420;28;20043;-65
2021/05/26 01:46:23;;;;;;;11.23;10.05;;;9.20;97.40;;;;;;5072328;28;20075;-65
2021/05/26 01:48:50;;;;;;;18.33;9.65;;;9.30;97.30;;;;;;5072168;28;20107;-65
2021/05/26 01:51:16;;;;;;;9.90;8.90;;;9.30;96.30;;;;;;5072332;28;20036;-65
2021/05/26 01:53:43;;;;;;;10.73;9.63;;;9.30;96.80;;;;;;5072349;28;20170;-65
2021/05/26 01:56:22;;;;;;;11.68;9.40;;;9.30;96.50;;;;;;5054648;28;20059;-65
2021/05/26 01:58:52;;;;;;;9.65;8.68;;;9.30;96.80;;;;;;5072206;28;20071;-65
2021/05/26 02:01:19;;;;;;;12.95;9.80;;;9.30;96.60;;;;;;5072158;28;20115;-65
2021/05/26 02:03:45;;;;;;;10.02;8.43;;;9.30;96.60;;;;;;5072387;28;20392;-65
2021/05/26 02:06:12;;;;;;;11.88;8.85;;;9.30;96.50;;;;;;5071947;28;20044;-65
2021/05/26 02:08:39;;;;;;;10.63;8.82;;;9.30;96.80;;;;;;5071742;28;20451;-65
2021/05/26 02:13:49;;;;;;;10.90;9.10;;;9.30;96.60;;;;;;5071988;28;20394;-65
2021/05/26 02:16:15;;;;;;;9.80;8.88;;;9.30;96.20;;;;;;5071688;28;20036;-65
2021/05/26 02:18:41;;;;;;;10.38;9.07;;;9.30;95.70;;;;;;5071918;28;20106;-65
2021/05/26 02:21:06;;;;;;;10.32;8.95;;;9.30;95.80;;;;;;5072200;28;20478;-65
2021/05/26 02:23:32;;;;;;;12.13;8.85;;;9.30;96.80;;;;;;5054014;28;20036;-64
2021/05/26 02:25:58;;;;;;;10.38;9.30;;;9.30;96.50;;;;;;5071649;28;20082;-64
2021/05/26 02:28:25;;;;;;;10.10;9.10;;;9.30;96.90;;;;;;5071928;28;20032;-64
2021/05/26 02:30:50;;;;;;;10.48;9.35;;;9.30;96.50;;;;;;5072565;28;20036;-64
2021/05/26 02:33:16;;;;;;;11.30;10.07;;;9.40;96.30;;;;;;5071779;28;20394;-64
2021/05/26 02:35:41;;;;;;;14.88;9.98;;;9.40;96.50;;;;;;5071667;28;20060;-64
2021/05/26 02:38:07;;;;;;;10.48;9.48;;;9.40;96.90;;;;;;5071886;28;20048;-64
2021/05/26 02:40:33;;;;;;;14.65;10.15;;;9.30;96.60;;;;;;5071604;28;20110;-64
2021/05/26 02:43:01;;;;;;;12.93;11.50;;;9.30;97.00;;;;;;5071476;28;20045;-64
2021/05/26 02:45:27;;;;;;;11.98;10.85;;;9.30;97.20;;;;;;5071500;28;20098;-64
2021/05/26 02:47:52;;;;;;;11.57;10.38;;;9.30;96.70;;;;;;5071528;28;20037;-64
2021/05/26 02:50:18;;;;;;;14.50;10.70;;;9.30;96.90;;;;;;5071630;28;20040;-65
2021/05/26 02:52:45;;;;;;;12.45;11.20;;;9.40;96.80;;;;;;5071434;28;20349;-65
2021/05/26 02:55:12;;;;;;;13.20;11.57;;;9.40;95.90;;;;;;5071531;28;20374;-65
2021/05/26 02:57:37;;;;;;;14.75;13.15;;;9.50;96.20;;;;;;5071435;28;20048;-65
2021/05/26 03:00:05;;;;;;;13.90;12.40;;;9.40;96.50;;;;;;5071515;28;20056;-65
2021/05/26 03:02:31;;;;;;;14.80;13.10;;;9.40;96.00;;;;;;5071499;28;20102;-65
2021/05/26 03:04:56;;;;;;;14.73;13.23;;;9.50;96.20;;;;;;5071509;28;20040;-65
2021/05/26 03:07:22;;;;;;;14.13;12.10;;;9.50;95.00;;;;;;5071148;28;20477;-65
2021/05/26 03:09:48;;;;;;;14.65;13.18;;;9.50;95.00;;;;;;5071262;28;20043;-65
2021/05/26 03:12:13;;;;;;;15.30;13.65;;;9.50;95.90;;;;;;5071193;28;20036;-65
2021/05/26 03:14:39;;;;;;;15.95;14.27;;;9.50;96.10;;;;;;5071189;28;20036;-65
2021/05/26 03:17:05;;;;;;;15.23;13.60;;;9.50;95.70;;;;;;5053357;28;20040;-65
2021/05/26 03:19:31;;;;;;;16.05;14.35;;;9.50;95.20;;;;;;5071465;28;20049;-65
2021/05/26 03:21:57;;;;;;;15.82;13.98;;;9.50;95.80;;;;;;5071195;28;20055;-65
2021/05/26 03:24:23;;;;;;;16.05;14.38;;;9.50;95.00;;;;;;5071167;28;20135;-65
2021/05/26 03:26:48;;;;;;;15.18;13.68;;;9.50;94.70;;;;;;5071154;28;20042;-65
2021/05/26 03:29:15;;;;;;;17.42;14.77;;;9.50;95.20;;;;;;5070991;28;20094;-65
2021/05/26 03:31:41;;;;;;;16.23;14.52;;;9.50;96.10;;;;;;5071000;28;20063;-65
2021/05/26 03:34:07;;;;;;;17.30;14.90;;;9.50;95.50;;;;;;5070945;28;20036;-65
2021/05/26 03:36:32;;;;;;;19.92;16.80;;;9.50;96.10;;;;;;5071487;28;20040;-65
2021/05/26 03:38:58;;;;;;;20.73;16.75;;;9.40;96.10;;;;;;5074674;28;20056;-65
2021/05/26 03:41:23;;;;;;;20.48;17.48;;;9.40;95.90;;;;;;5074938;28;20037;-65
2021/05/26 03:43:49;;;;;;;20.85;17.75;;;9.30;96.30;;;;;;5056756;28;20041;-65
2021/05/26 03:46:15;;;;;;;23.52;21.15;;;9.30;95.90;;;;;;5074991;28;20045;-65
2021/05/26 03:48:40;;;;;;;24.65;21.25;;;9.30;97.40;;;;;;5075348;28;20531;-65
2021/05/26 03:51:06;;;;;;;26.10;22.27;;;9.20;96.20;;;;;;5075015;28;20036;-65
2021/05/26 03:53:32;;;;;;;26.42;22.25;;;9.20;97.10;;;;;;5073788;28;20037;-66
2021/05/26 03:55:58;;;;;;;29.33;22.73;;;9.20;96.10;;;;;;5055725;28;20044;-66
2021/05/26 03:58:23;;;;;;;30.23;23.25;;;9.20;95.60;;;;;;5074426;28;20036;-65
2021/05/26 04:00:49;;;;;;;30.88;24.58;;;9.20;97.10;;;;;;5074703;28;20041;-65
2021/05/26 04:03:15;;;;;;;31.02;24.67;;;9.10;97.00;;;;;;5074394;28;20126;-65
2021/05/26 04:05:41;;;;;;;31.63;25.27;;;9.20;96.40;;;;;;5074389;28;20403;-65
2021/05/26 04:08:06;;;;;;;28.10;22.63;;;9.20;96.10;;;;;;5074564;28;20036;-66
2021/05/26 04:10:32;;;;;;;35.53;26.92;;;9.20;96.40;;;;;;5074411;28;20037;-65
2021/05/26 04:12:58;;;;;;;32.53;24.90;;;9.30;96.90;;;;;;5074312;28;20375;-65
2021/05/26 04:15:23;;;;;;;34.80;27.58;;;9.30;96.40;;;;;;5074185;28;20048;-65
2021/05/26 04:17:49;;;;;;;31.20;24.05;;;9.40;95.50;;;;;;5074410;28;20036;-65
2021/05/26 04:20:15;;;;;;;36.83;28.42;;;9.50;94.40;;;;;;5074079;28;20036;-65
2021/05/26 04:22:41;;;;;;;35.28;29.10;;;9.50;96.30;;;;;;5073975;28;20497;-65
2021/05/26 04:25:07;;;;;;;42.45;28.92;;;9.60;95.90;;;;;;5074234;28;20044;-65
2021/05/26 04:27:33;;;;;;;37.60;30.45;;;9.60;96.00;;;;;;5074466;28;20037;-65
2021/05/26 04:30:00;;;;;;;35.33;27.45;;;9.60;96.70;;;;;;5074485;28;20032;-65
2021/05/26 04:32:26;;;;;;;38.53;28.27;;;9.60;96.00;;;;;;5074229;28;20066;-64
2021/05/26 04:34:52;;;;;;;35.28;28.15;;;9.70;97.00;;;;;;5073924;28;20036;-64
2021/05/26 04:37:17;;;;;;;34.47;25.60;;;9.70;96.50;;;;;;5073911;28;20052;-65
2021/05/26 04:39:44;;;;;;;40.97;28.77;;;9.70;96.10;;;;;;5039307;28;20399;-65
2021/05/26 04:42:10;;;;;;;30.95;24.42;;;9.70;95.70;;;;;;5073747;28;20478;-65
2021/05/26 04:44:35;;;;;;;29.83;23.95;;;9.80;96.20;;;;;;5073672;28;20086;-65
2021/05/26 04:47:01;;;;;;;33.67;25.15;;;9.80;95.90;;;;;;5074006;28;20036;-64
2021/05/26 04:49:27;;;;;;;25.45;20.45;;;9.80;95.40;;;;;;5055486;28;20101;-65
2021/05/26 04:51:53;;;;;;;27.77;23.55;;;9.90;94.00;;;;;;5056211;28;20044;-65
2021/05/26 04:54:19;;;;;;;30.45;23.55;;;9.90;94.20;;;;;;5073699;28;20036;-65
2021/05/26 04:56:44;;;;;;;34.30;25.52;;;9.90;94.80;;;;;;5073616;28;20036;-64
2021/05/26 04:59:11;;;;;;;26.48;20.80;;;9.90;95.50;;;;;;5073644;28;20504;-64
2021/05/26 05:01:38;;;;;;;28.65;22.33;;;10.00;93.70;;;;;;5073363;28;20037;-64
2021/05/26 05:04:04;;;;;;;32.78;22.95;;;9.90;93.90;;;;;;5073436;28;20115;-65
2021/05/26 05:06:29;;;;;;;28.58;22.38;;;9.90;95.30;;;;;;5073733;28;20068;-65
2021/05/26 05:08:55;;;;;;;26.02;22.70;;;9.90;95.20;;;;;;5073402;28;20114;-65
2021/05/26 05:11:20;;;;;;;24.08;20.98;;;9.90;94.90;;;;;;5073347;28;20472;-65
2021/05/26 05:13:47;;;;;;;23.33;20.80;;;10.10;94.90;;;;;;5073466;28;20620;-65
2021/05/26 05:16:13;;;;;;;25.13;19.85;;;10.10;94.40;;;;;;5073084;28;20048;-65
2021/05/26 05:18:39;;;;;;;26.15;19.48;;;10.10;93.70;;;;;;5073229;28;20032;-65
2021/05/26 05:21:05;;;;;;;31.52;20.95;;;10.20;93.10;;;;;;5073296;28;20047;-65
2021/05/26 05:23:31;;;;;;;25.23;20.60;;;10.20;94.10;;;;;;5073339;28;20127;-65
2021/05/26 05:25:56;;;;;;;23.40;18.83;;;10.30;94.80;;;;;;5055286;28;20040;-65
2021/05/26 05:28:22;;;;;;;21.55;18.85;;;10.40;94.70;;;;;;5073280;28;20067;-65
2021/05/26 05:30:48;;;;;;;21.92;16.90;;;10.40;95.10;;;;;;5073301;28;20037;-65
2021/05/26 05:33:14;;;;;;;22.92;17.30;;;10.60;94.50;;;;;;5073185;28;20032;-65
2021/05/26 05:35:39;;;;;;;15.45;12.52;;;10.80;94.00;;;;;;5055101;28;20158;-64
2021/05/26 05:38:05;;;;;;;16.25;13.73;;;11.10;92.80;;;;;;5072950;28;20067;-65
2021/05/26 05:40:31;;;;;;;17.27;13.00;;;11.20;92.60;;;;;;5072655;28;20058;-65
2021/05/26 05:42:56;;;;;;;12.73;11.02;;;11.30;92.40;;;;;;5072746;28;20040;-64
2021/05/26 05:45:22;;;;;;;13.68;10.45;;;11.50;91.70;;;;;;5073071;28;20124;-64
2021/05/26 05:47:48;;;;;;;13.35;11.13;;;11.70;91.80;;;;;;5072990;28;20486;-64
2021/05/26 05:50:17;;;;;;;12.85;8.75;;;12.40;92.10;;;;;;5072665;28;20059;-65
2021/05/26 05:52:44;;;;;;;14.35;9.65;;;13.60;87.60;;;;;;5072803;28;20044;-65
2021/05/26 05:55:11;;;;;;;10.02;7.45;;;13.90;87.10;;;;;;5111321;22;20052;-65
2021/05/26 05:57:37;;;;;;;10.05;8.15;;;13.60;84.90;;;;;;5113556;28;20039;-65
2021/05/26 06:00:04;;;;;;;8.57;7.65;;;13.20;86.70;;;;;;5112531;28;20032;-65
2021/05/26 06:02:30;;;;;;;9.55;8.55;;;12.80;87.10;;;;;;5113109;28;20043;-65
2021/05/26 06:04:55;;;;;;;10.75;7.75;;;12.50;90.10;;;;;;5113418;28;20054;-65
2021/05/26 06:07:21;;;;;;;11.25;7.43;;;12.30;90.10;;;;;;5113032;28;20039;-65
2021/05/26 06:09:47;;;;;;;9.07;6.10;;;12.20;90.30;;;;;;5113040;28;20395;-65
2021/05/26 06:12:12;;;;;;;8.45;6.43;;;12.20;90.00;;;;;;5094660;28;20031;-64
2021/05/26 06:14:38;;;;;;;8.82;6.00;;;12.80;89.90;;;;;;5112460;28;20077;-64
2021/05/26 06:17:03;;;;;;;7.13;5.47;;;13.50;86.30;;;;;;5094681;28;20070;-64
2021/05/26 06:19:29;;;;;;;6.40;5.07;;;13.70;85.80;;;;;;5113086;28;20474;-65
2021/05/26 06:21:55;;;;;;;9.45;6.00;;;13.60;84.80;;;;;;5112766;28;20476;-65
2021/05/26 06:24:21;;;;;;;8.20;5.38;;;13.50;85.30;;;;;;5112877;28;20080;-66
2021/05/26 06:26:46;;;;;;;9.20;5.50;;;13.30;86.70;;;;;;5112660;28;20181;-66
2021/05/26 06:29:12;;;;;;;6.25;5.30;;;13.10;85.40;;;;;;5112776;28;20047;-66
2021/05/26 06:31:37;;;;;;;7.82;5.40;;;12.90;86.60;;;;;;5112515;28;20062;-66
2021/05/26 06:34:03;;;;;;;7.53;5.38;;;12.70;89.00;;;;;;5112518;28;20043;-66
2021/05/26 06:36:33;;;;;;;7.05;4.88;;;12.70;89.00;;;;;;5112543;28;20065;-66
2021/05/26 06:38:59;;;;;;;6.38;4.88;;;12.60;88.10;;;;;;5094313;28;20031;-66
2021/05/26 06:41:25;;;;;;;8.73;4.60;;;12.50;89.20;;;;;;5112444;28;20067;-66
2021/05/26 06:43:51;;;;;;;5.03;4.25;;;12.40;89.70;;;;;;5112230;28;20511;-66
2021/05/26 06:46:16;;;;;;;5.43;4.18;;;12.30;90.40;;;;;;5112429;28;20515;-66
2021/05/26 06:48:42;;;;;;;7.47;4.47;;;12.30;90.00;;;;;;5112524;28;20042;-66
2021/05/26 06:51:07;;;;;;;7.78;4.25;;;12.20;88.80;;;;;;5112208;28;20438;-66
2021/05/26 06:53:33;;;;;;;7.07;4.68;;;12.00;90.10;;;;;;5093982;28;20032;-66
2021/05/26 06:55:59;;;;;;;5.63;4.30;;;11.80;90.70;;;;;;5093592;28;20051;-66
2021/05/26 06:58:24;;;;;;;7.10;4.43;;;11.80;91.60;;;;;;5112215;28;20035;-66
2021/05/26 07:00:50;;;;;;;7.28;4.63;;;11.80;91.20;;;;;;5112564;28;20036;-65
2021/05/26 07:03:16;;;;;;;7.03;4.65;;;12.00;91.80;;;;;;5112133;28;20419;-65
2021/05/26 07:05:42;;;;;;;6.53;4.75;;;12.40;91.20;;;;;;5093969;28;20526;-65
2021/05/26 07:08:07;;;;;;;8.07;5.15;;;12.60;90.60;;;;;;5111797;28;20524;-64
2021/05/26 07:10:33;;;;;;;9.32;5.35;;;12.90;90.70;;;;;;5112628;28;20043;-65
2021/05/26 07:12:59;;;;;;;7.43;4.60;;;12.80;90.10;;;;;;5098084;28;20071;-65
2021/05/26 07:15:25;;;;;;;5.55;4.75;;;12.70;89.50;;;;;;5116937;28;20115;-64
2021/05/26 07:17:54;;;;;;;7.47;4.57;;;12.50;88.90;;;;;;5116371;28;20063;-65
2021/05/26 07:20:20;;;;;;;6.50;4.63;;;12.30;89.60;;;;;;5115991;28;20031;-65
2021/05/26 07:22:46;;;;;;;6.45;4.63;;;12.10;90.30;;;;;;5116154;28;20044;-65
2021/05/26 07:25:12;;;;;;;8.25;5.50;;;12.00;91.00;;;;;;5116012;28;20538;-65
2021/05/26 07:27:38;;;;;;;9.73;5.18;;;11.90;91.30;;;;;;5097746;28;20040;-65
2021/05/26 07:30:05;;;;;;;7.45;5.78;;;11.80;91.00;;;;;;5115798;28;20055;-65
2021/05/26 07:32:31;;;;;;;7.57;5.78;;;11.70;91.90;;;;;;5115835;28;20040;-64
2021/05/26 07:34:56;;;;;;;7.10;6.30;;;11.70;90.60;;;;;;5097825;28;20477;-64
2021/05/26 07:37:22;;;;;;;6.93;6.22;;;11.50;91.80;;;;;;5115914;28;20119;-64
2021/05/26 07:39:48;;;;;;;5.80;5.13;;;11.60;91.00;;;;;;5097467;28;20036;-64
2021/05/26 07:42:15;;;;;;;7.93;6.15;;;11.60;90.70;;;;;;5097500;28;20035;-64
2021/05/26 07:44:41;;;;;;;5.38;4.68;;;11.60;90.40;;;;;;5116151;28;20118;-64
2021/05/26 07:47:06;;;;;;;5.13;4.20;;;11.60;91.30;;;;;;5097857;28;20228;-63
2021/05/26 07:49:32;;;;;;;6.10;5.05;;;11.60;90.40;;;;;;5115467;28;20555;-65
2021/05/26 07:52:03;;;;;;;4.95;4.45;;;11.60;90.90;;;;;;5115696;28;20119;-65
2021/05/26 07:54:30;;;;;;;5.72;4.32;;;11.60;91.00;;;;;;5115425;28;20079;-65
2021/05/26 07:56:58;;;;;;;6.55;5.18;;;11.60;91.30;;;;;;5115487;28;20556;-64
2021/05/26 07:59:24;;;;;;;4.97;4.30;;;11.60;92.00;;;;;;5097505;28;20046;-64
2021/05/26 08:01:49;;;;;;;7.28;5.18;;;11.60;90.20;;;;;;5115538;28;20035;-65
2021/05/26 08:04:15;;;;;;;6.75;5.03;;;11.50;92.10;;;;;;5115152;28;20046;-65
2021/05/26 08:06:40;;;;;;;7.75;5.10;;;11.50;91.70;;;;;;5097257;28;20046;-63
2021/05/26 08:09:06;;;;;;;7.28;4.88;;;11.60;91.30;;;;;;5115041;28;20115;-64
2021/05/26 08:11:32;;;;;;;8.43;5.25;;;11.60;91.10;;;;;;5115438;28;20119;-64
2021/05/26 08:13:58;;;;;;;5.53;4.40;;;11.70;90.80;;;;;;5115316;28;20047;-65
2021/05/26 08:16:25;;;;;;;6.22;5.70;;;11.80;90.20;;;;;;5096898;28;20036;-65
2021/05/26 08:18:51;;;;;;;4.72;4.32;;;11.90;89.90;;;;;;5115157;28;20393;-65
2021/05/26 08:21:17;;;;;;;5.78;4.50;;;12.00;89.60;;;;;;5115036;28;20093;-65
2021/05/26 08:23:44;;;;;;;5.45;3.30;;;12.00;90.50;;;;;;5114224;28;20529;-65
2021/05/26 08:26:14;;;;;;;4.47;2.90;;;12.20;90.50;;;;;;5114925;28;20047;-65
2021/05/26 08:28:40;;;;;;;3.15;2.83;;;12.40;90.20;;;;;;5096554;28;20039;-63
2021/05/26 08:31:06;;;;;;;3.03;2.60;;;12.60;87.10;;;;;;5096667;28;20036;-64
2021/05/26 08:33:31;;;;;;;4.80;2.50;;;12.50;88.70;;;;;;5096739;28;20036;-63
2021/05/26 08:35:57;;;;;;;3.72;2.20;;;12.60;87.70;;;;;;5115203;28;20035;-64
2021/05/26 08:38:23;;;;;;;3.47;2.50;;;12.70;88.70;;;;;;5114970;28;20071;-65
2021/05/26 08:40:49;;;;;;;3.17;2.40;;;12.80;87.70;;;;;;5096817;28;20035;-65
2021/05/26 08:43:16;;;;;;;2.25;2.05;;;13.00;87.00;;;;;;5114919;28;20031;-65
2021/05/26 08:45:43;;;;;;;3.25;2.33;;;13.40;83.70;;;;;;5096671;28;20044;-64
2021/05/26 08:48:12;;;;;;;2.67;2.40;;;13.50;83.00;;;;;;5096783;28;20059;-64
2021/05/26 08:50:40;;;;;;;2.97;2.50;;;13.50;85.00;;;;;;5114936;28;20039;-64
2021/05/26 08:53:05;;;;;;;3.00;2.78;;;13.50;85.60;;;;;;5115119;28;20036;-64
2021/05/26 08:55:31;;;;;;;2.53;2.30;;;13.70;83.20;;;;;;5114929;28;20104;-64
2021/05/26 08:58:00;;;;;;;3.00;2.13;;;13.80;83.00;;;;;;5114963;28;20036;-64
2021/05/26 09:00:26;;;;;;;3.47;2.90;;;13.90;84.70;;;;;;5114890;28;20084;-64
2021/05/26 09:02:51;;;;;;;2.83;2.33;;;14.00;89.80;;;;;;5115200;28;20036;-64
2021/05/26 09:05:29;;;;;;;3.15;2.60;;;14.20;84.70;;;;;;5114607;28;20477;-64
2021/05/26 09:07:56;;;;;;;2.22;2.05;;;14.50;85.60;;;;;;5114528;28;20166;-64
2021/05/26 09:10:22;;;;;;;1.90;1.60;;;14.70;80.00;;;;;;5096258;28;20039;-64
2021/05/26 09:12:51;;;;;;;1.77;1.17;;;14.70;78.00;;;;;;5114103;28;20032;-64
2021/05/26 09:15:21;;;;;;;3.83;2.08;;;14.70;78.40;;;;;;5114260;28;20162;-64
2021/05/26 09:17:53;;;;;;;2.42;1.73;;;14.60;81.60;;;;;;5114259;28;20063;-66
2021/05/26 09:20:29;;;;;;;2.35;1.63;;;14.70;80.90;;;;;;5114409;28;20137;-65
2021/05/26 09:23:06;;;;;;;4.03;1.63;;;14.70;80.70;;;;;;5114327;28;20028;-66
2021/05/26 09:25:38;;;;;;;1.67;1.40;;;14.60;80.00;;;;;;5113950;28;20055;-65
2021/05/26 09:28:28;;;;;;;2.93;1.43;;;14.60;81.00;;;;;;5114118;28;20040;-66
2021/05/26 09:31:07;;;;;;;2.63;1.48;;;14.50;82.00;;;;;;5113901;28;20036;-66
2021/05/26 09:33:41;;;;;;;1.52;1.20;;;14.80;80.60;;;;;;5114130;28;20396;-63
2021/05/26 09:36:24;;;;;;;1.58;1.10;;;15.10;79.00;;;;;;5094948;28;20032;-63
2021/05/26 09:38:56;;;;;;;1.92;1.00;;;15.30;77.80;;;;;;5113992;28;20480;-64
2021/05/26 09:41:27;;;;;;;1.58;0.90;;;15.50;76.90;;;;;;5095708;28;20044;-64
2021/05/26 09:44:10;;;;;;;1.55;1.27;;;15.70;74.20;;;;;;5114316;28;20062;-64
2021/05/26 09:46:37;;;;;;;1.67;0.90;;;15.70;75.10;;;;;;5113759;28;20040;-64
2021/05/26 09:49:04;;;;;;;1.33;0.70;;;15.50;72.80;;;;;;5113933;28;20469;-64
2021/05/26 09:51:32;;;;;;;1.75;0.60;;;15.40;73.60;;;;;;5113961;28;20039;-64
2021/05/26 09:54:18;;;;;;;2.13;1.00;;;15.30;71.40;;;;;;5113618;28;20520;-64
2021/05/26 09:56:50;;;;;;;1.25;0.63;;;15.20;74.40;;;;;;5095485;28;20413;-64
2021/05/26 09:59:16;;;;;;;2.95;0.80;;;15.40;74.10;;;;;;5113604;28;20485;-65
2021/05/26 10:01:42;;;;;;;1.88;0.90;;;15.30;74.30;;;;;;5113672;28;20046;-65
2021/05/26 10:04:08;;;;;;;1.17;1.08;;;15.10;74.20;;;;;;5095524;28;20039;-65
2021/05/26 10:06:37;;;;;;;1.27;0.73;;;15.00;74.30;;;;;;5113762;28;20042;-65
2021/05/26 10:09:04;;;;;;;0.88;0.80;;;14.80;75.50;;;;;;5113531;28;20040;-65
2021/05/26 10:11:34;;;;;;;1.60;0.60;;;14.50;75.00;;;;;;5113803;28;20040;-66
2021/05/26 10:14:06;;;;;;;1.52;0.82;;;14.70;74.90;;;;;;5113345;28;20036;-65
2021/05/26 10:16:34;;;;;;;1.35;0.57;;;14.30;74.30;;;;;;5113261;28;20075;-66
2021/05/26 10:19:02;;;;;;;1.60;0.60;;;14.20;74.20;;;;;;5113397;28;20031;-65
2021/05/26 10:21:30;;;;;;;0.38;0.38;;;14.20;75.40;;;;;;5113166;28;20081;-65
2021/05/26 10:23:56;;;;;;;2.30;0.63;;;14.30;74.40;;;;;;5095168;28;20070;-65
2021/05/26 10:26:48;;;;;;;1.58;0.85;;;14.50;75.10;;;;;;5113376;28;20100;-65
2021/05/26 10:29:26;;;;;;;0.90;0.50;;;14.70;74.80;;;;;;5113375;28;20115;-65
2021/05/26 10:31:52;;;;;;;1.38;0.52;;;14.50;71.30;;;;;;5112862;28;20036;-65
2021/05/26 10:34:17;;;;;;;3.60;0.50;;;14.50;72.30;;;;;;5113086;28;20404;-66
2021/05/26 10:36:52;;;;;;;0.40;0.40;;;14.30;73.70;;;;;;5112912;28;20040;-65
2021/05/26 10:39:31;;;;;;;1.52;0.40;;;14.50;74.40;;;;;;5112904;28;20085;-65
2021/05/26 10:41:57;;;;;;;0.50;0.50;;;14.80;73.00;;;;;;5112728;28;20039;-65
2021/05/26 10:44:55;;;;;;;0.80;0.50;;;15.10;72.90;;;;;;5094406;28;20117;-65
2021/05/26 10:47:39;;;;;;;0.60;0.60;;;15.40;72.00;;;;;;5112296;28;20043;-66
2021/05/26 10:50:25;;;;;;;0.57;0.55;;;15.50;70.70;;;;;;5094137;28;20374;-66
2021/05/26 10:52:56;;;;;;;0.98;0.47;;;15.60;70.60;;;;;;5094173;28;20473;-65
2021/05/26 10:55:44;;;;;;;2.55;0.80;;;15.50;68.50;;;;;;5111866;28;20059;-65
2021/05/26 10:58:12;;;;;;;0.60;0.47;;;15.70;68.20;;;;;;5112661;28;20785;-63
2021/05/26 11:00:40;;;;;;;0.90;0.70;;;16.00;67.90;;;;;;5112427;28;20473;-64
2021/05/26 11:03:24;;;;;;;2.20;0.95;;;15.90;68.40;;;;;;5112801;28;20028;-64
2021/05/26 11:05:51;;;;;;;0.77;0.60;;;15.60;68.20;;;;;;5112551;28;20050;-64
2021/05/26 11:08:35;;;;;;;0.75;0.57;;;15.50;68.80;;;;;;5112196;28;20067;-64
2021/05/26 11:11:23;;;;;;;0.80;0.70;;;15.60;69.20;;;;;;5094230;28;20110;-64
2021/05/26 11:14:22;;;;;;;0.68;0.68;;;15.70;70.00;;;;;;5112225;28;20164;-64
2021/05/26 11:16:47;;;;;;;1.95;0.85;;;15.80;67.30;;;;;;5112199;28;20050;-64
2021/05/26 11:19:24;;;;;;;1.60;0.80;;;15.90;69.20;;;;;;5112312;28;20043;-64
2021/05/26 11:22:05;;;;;;;1.13;0.65;;;15.80;66.10;;;;;;5112141;28;20039;-64
2021/05/26 11:24:32;;;;;;;2.70;0.90;;;15.80;67.00;;;;;;5094232;28;20031;-64
2021/05/26 11:27:11;;;;;;;3.42;0.90;;;15.70;69.30;;;;;;5112159;28;20454;-64
2021/05/26 11:29:38;;;;;;;3.63;0.93;;;15.50;69.50;;;;;;5111879;28;20114;-64
2021/05/26 11:32:04;;;;;;;2.88;1.00;;;15.30;67.70;;;;;;5112002;28;20036;-64
2021/05/26 11:34:30;;;;;;;1.50;0.93;;;15.20;70.30;;;;;;5111854;28;20042;-64
2021/05/26 11:36:56;;;;;;;2.58;1.10;;;15.30;71.20;;;;;;5111870;28;20130;-64
2021/05/26 11:39:28;;;;;;;1.60;0.82;;;15.40;70.40;;;;;;5112322;28;20044;-64
2021/05/26 11:42:17;;;;;;;9.55;1.20;;;15.50;67.80;;;;;;5094226;28;20099;-64
2021/05/26 11:44:54;;;;;;;2.30;0.93;;;15.40;67.20;;;;;;5112147;28;20039;-64
2021/05/26 11:47:41;;;;;;;2.30;1.10;;;15.50;68.50;;;;;;5112176;28;20388;-66
2021/05/26 11:50:12;;;;;;;1.85;1.10;;;15.70;68.00;;;;;;5112231;28;20122;-64
2021/05/26 11:52:39;;;;;;;0.93;0.85;;;15.90;68.60;;;;;;5112172;28;20435;-64
2021/05/26 11:55:05;;;;;;;3.50;1.40;;;16.10;67.70;;;;;;5111138;28;20092;-66
2021/05/26 11:57:52;;;;;;;2.45;1.58;;;15.90;65.20;;;;;;5110337;28;20534;-66
2021/05/26 12:00:20;;;;;;;1.33;1.00;;;15.90;68.50;;;;;;5114551;28;20036;-66
2021/05/26 12:03:03;;;;;;;1.63;1.08;;;16.00;67.60;;;;;;5113978;28;20047;-66
2021/05/26 12:05:46;;;;;;;3.38;1.20;;;16.00;65.30;;;;;;5113991;28;20043;-66
2021/05/26 12:08:22;;;;;;;2.75;1.10;;;16.00;67.60;;;;;;5113826;28;20039;-66
2021/05/26 12:10:52;;;;;;;3.40;1.00;;;16.00;63.80;;;;;;5113843;28;20035;-66
2021/05/26 12:13:23;;;;;;;4.95;1.40;;;16.00;64.40;;;;;;5095521;28;20036;-66
2021/05/26 12:15:49;;;;;;;3.38;1.38;;;16.00;63.10;;;;;;5113701;28;20460;-66
2021/05/26 12:18:15;;;;;;;2.85;1.00;;;15.90;65.80;;;;;;5114089;28;20066;-66
2021/05/26 12:20:49;;;;;;;2.88;1.10;;;15.90;66.40;;;;;;5113665;28;20069;-66
2021/05/26 12:23:28;;;;;;;3.03;1.00;;;15.90;65.60;;;;;;5113642;28;20040;-66
2021/05/26 12:25:54;;;;;;;3.13;1.50;;;16.00;67.70;;;;;;5113802;28;20118;-66
2021/05/26 12:28:22;;;;;;;2.00;1.40;;;16.00;65.90;;;;;;5113265;28;20317;-66
2021/05/26 12:30:50;;;;;;;3.15;0.82;;;16.00;66.80;;;;;;5095157;28;20046;-66
2021/05/26 12:33:21;;;;;;;2.50;1.20;;;16.00;65.50;;;;;;5113394;28;20039;-66
2021/05/26 12:36:01;;;;;;;3.05;1.05;;;15.90;65.90;;;;;;5113224;28;20040;-67
2021/05/26 12:38:26;;;;;;;1.73;0.90;;;16.10;68.50;;;;;;5094990;28;20043;-66
2021/05/26 12:40:52;;;;;;;2.25;1.20;;;16.00;66.10;;;;;;5095138;28;20370;-66
2021/05/26 12:43:31;;;;;;;1.58;1.15;;;16.00;66.70;;;;;;5113217;28;20293;-66
2021/05/26 12:45:58;;;;;;;3.65;1.30;;;16.20;66.90;;;;;;5113114;28;20046;-66
2021/05/26 12:48:29;;;;;;;2.53;1.33;;;16.40;67.30;;;;;;5094857;28;20046;-67
2021/05/26 12:51:00;;;;;;;1.40;1.08;;;16.50;64.70;;;;;;5094973;28;20042;-67